createdAt,value
2022-10-06T00:00:47.523Z,93.87
2022-10-06T00:05:47.531Z,93.31
2022-10-06T00:10:47.323Z,93.62
2022-10-06T00:15:47.347Z,93.51
2022-10-06T00:20:47.394Z,92.70
2022-10-06T00:25:47.173Z,92.70
2022-10-06T00:30:47.150Z,93.21
2022-10-06T00:35:47.004Z,91.72
2022-10-06T00:40:46.988Z,91.93
2022-10-06T00:45:47.070Z,91.52
2022-10-06T00:50:46.978Z,91.22
2022-10-06T00:55:46.789Z,91.31
2022-10-06T01:00:47.834Z,91.22
2022-10-06T01:05:46.828Z,91.31
2022-10-06T01:10:46.811Z,92.07
2022-10-06T01:15:46.609Z,91.93
2022-10-06T01:20:46.510Z,92.68
2022-10-06T01:25:46.612Z,93.40
2022-10-06T01:30:46.431Z,93.70
2022-10-06T01:35:46.374Z,93.60
2022-10-06T01:40:46.339Z,93.29
2022-10-06T01:45:46.276Z,92.89
2022-10-06T01:50:46.225Z,92.27
2022-10-06T01:55:46.182Z,92.48
2022-10-06T02:00:46.172Z,93.24
2022-10-06T02:05:46.008Z,93.03
2022-10-06T02:10:45.998Z,92.38
2022-10-06T02:15:45.912Z,92.63
2022-10-06T02:20:45.864Z,93.24
2022-10-06T02:25:45.815Z,93.03
2022-10-06T02:30:45.723Z,93.13
2022-10-06T02:35:45.680Z,93.24
2022-10-06T02:40:45.602Z,92.63
2022-10-06T02:45:45.584Z,91.81
2022-10-06T02:50:45.534Z,92.01
2022-10-06T02:55:45.655Z,91.40
2022-10-06T03:00:45.504Z,91.44
2022-10-06T03:05:46.394Z,91.20
2022-10-06T03:10:45.378Z,91.30
2022-10-06T03:15:45.367Z,91.50
2022-10-06T03:20:45.280Z,91.71
2022-10-06T03:25:45.167Z,91.75
2022-10-06T03:30:53.950Z,91.61
2022-10-06T03:35:44.969Z,91.44
2022-10-06T03:40:44.954Z,92.36
2022-10-06T03:45:44.878Z,92.41
2022-10-06T03:50:44.830Z,92.26
2022-10-06T03:55:44.847Z,92.30
2022-10-06T04:00:44.829Z,92.10
2022-10-06T04:05:44.688Z,92.30
2022-10-06T04:10:44.570Z,92.50
2022-10-06T04:15:44.524Z,92.50
2022-10-06T04:20:44.459Z,92.10
2022-10-06T04:25:44.439Z,92.00
2022-10-06T04:30:44.334Z,92.30
2022-10-06T04:35:44.305Z,92.10
2022-10-06T04:40:44.246Z,91.94
2022-10-06T04:45:44.198Z,91.74
2022-10-06T04:50:44.217Z,92.45
2022-10-06T04:55:44.133Z,92.39
2022-10-06T05:00:44.149Z,92.19
2022-10-06T05:05:44.011Z,91.88
2022-10-06T05:10:43.893Z,91.88
2022-10-06T05:15:43.838Z,91.92
2022-10-06T05:20:43.791Z,92.43
2022-10-06T05:25:43.782Z,92.84
2022-10-06T05:30:43.683Z,92.37
2022-10-06T05:35:43.695Z,92.88
2022-10-06T05:40:43.718Z,92.47
2022-10-06T05:45:43.636Z,92.72
2022-10-06T05:50:45.449Z,92.52
2022-10-06T05:55:43.400Z,92.62
2022-10-06T06:00:43.375Z,92.62
2022-10-06T06:05:43.287Z,92.62
2022-10-06T06:10:43.230Z,92.93
2022-10-06T06:15:43.222Z,92.21
2022-10-06T06:20:43.281Z,92.11
2022-10-06T06:25:43.196Z,92.21
2022-10-06T06:30:43.107Z,92.52
2022-10-06T06:35:43.032Z,92.72
2022-10-06T06:40:46.530Z,91.39
2022-10-06T06:45:42.942Z,90.94
2022-10-06T06:50:42.957Z,91.05
2022-10-06T06:55:42.885Z,90.29
2022-10-06T07:00:43.901Z,90.59
2022-10-06T07:05:42.719Z,90.08
2022-10-06T07:10:42.728Z,90.19
2022-10-06T07:15:42.744Z,89.94
2022-10-06T07:20:42.617Z,89.23
2022-10-06T07:25:43.592Z,88.57
2022-10-06T07:30:43.570Z,88.22
2022-10-06T07:35:44.389Z,87.82
2022-10-06T07:40:50.643Z,87.57
2022-10-06T07:45:43.368Z,87.26
2022-10-06T07:50:42.243Z,86.41
2022-10-06T07:55:42.154Z,85.96
2022-10-06T08:00:42.066Z,85.51
2022-10-06T08:05:42.003Z,84.45
2022-10-06T08:10:41.993Z,83.67
2022-10-06T08:15:42.006Z,82.20
2022-10-06T08:20:41.891Z,79.93
2022-10-06T08:25:41.739Z,80.13
2022-10-06T08:30:41.713Z,78.67
2022-10-06T08:35:41.766Z,78.30
2022-10-06T08:40:41.717Z,79.17
2022-10-06T08:45:41.697Z,77.41
2022-10-06T08:50:41.573Z,77.48
2022-10-06T08:55:41.527Z,75.65
2022-10-06T09:00:41.360Z,76.26
2022-10-06T09:05:41.364Z,76.97
2022-10-06T09:10:41.357Z,74.64
2022-10-06T09:15:41.267Z,74.20
2022-10-06T09:20:41.160Z,72.68
2022-10-06T09:25:41.117Z,73.39
2022-10-06T09:30:54.566Z,72.41
2022-10-06T09:35:41.933Z,72.85
2022-10-06T09:40:40.913Z,71.60
2022-10-06T09:45:40.880Z,71.17
2022-10-06T09:50:40.785Z,68.88
2022-10-06T09:55:41.342Z,67.93
2022-10-06T10:00:40.873Z,68.01
2022-10-06T10:05:40.750Z,67.43
2022-10-06T10:10:40.569Z,67.30
2022-10-06T10:15:40.653Z,66.76
2022-10-06T10:20:41.156Z,65.72
2022-10-06T10:25:40.430Z,62.93
2022-10-06T10:30:40.463Z,64.70
2022-10-06T10:35:40.914Z,64.21
2022-10-06T10:40:40.462Z,63.04
2022-10-06T10:45:40.236Z,59.24
2022-10-06T10:50:41.422Z,58.84
2022-10-06T10:55:40.278Z,57.53
2022-10-06T11:00:40.301Z,57.86
2022-10-06T11:05:40.090Z,60.84
2022-10-06T11:10:39.995Z,61.11
2022-10-06T11:15:41.282Z,58.74
2022-10-06T11:20:40.068Z,57.12
2022-10-06T11:25:39.915Z,58.94
2022-10-06T11:30:41.985Z,61.52
2022-10-06T11:35:39.704Z,61.52
2022-10-06T11:40:39.662Z,61.39
2022-10-06T11:45:39.665Z,57.89
2022-10-06T11:50:39.626Z,59.37
2022-10-06T11:55:39.500Z,60.55
2022-10-06T12:00:39.677Z,57.78
2022-10-06T12:05:56.666Z,58.41
2022-10-06T12:10:40.361Z,57.70
2022-10-06T12:20:40.368Z,58.31
2022-10-06T12:25:39.214Z,59.99
2022-10-06T12:30:39.106Z,55.08
2022-10-06T12:35:39.224Z,56.02
2022-10-06T12:40:40.300Z,57.73
2022-10-06T12:45:43.563Z,58.67
2022-10-06T12:50:39.918Z,56.15
2022-10-06T12:55:38.870Z,57.98
2022-10-06T13:00:38.887Z,57.15
2022-10-06T13:05:38.685Z,58.87
2022-10-06T13:10:38.762Z,58.19
2022-10-06T13:15:38.844Z,56.81
2022-10-06T13:20:38.564Z,57.61
2022-10-06T13:25:38.506Z,58.52
2022-10-06T13:30:39.024Z,58.54
2022-10-06T13:35:38.409Z,61.17
2022-10-06T13:40:44.625Z,59.69
2022-10-06T13:45:39.439Z,60.29
2022-10-06T13:50:38.179Z,59.28
2022-10-06T13:55:38.363Z,57.46
2022-10-06T14:00:38.147Z,60.42
2022-10-06T14:05:38.068Z,58.70
2022-10-06T14:10:39.029Z,60.02
2022-10-06T14:15:38.054Z,60.22
2022-10-06T14:20:39.250Z,62.14
2022-10-06T14:25:37.886Z,61.36
2022-10-06T14:30:37.792Z,61.25
2022-10-06T14:35:37.710Z,60.38
2022-10-06T14:40:37.787Z,62.07
2022-10-06T14:45:37.660Z,62.81
2022-10-06T14:50:37.553Z,62.10
2022-10-06T14:55:37.617Z,63.21
2022-10-06T15:00:37.594Z,62.63
2022-10-06T15:05:37.549Z,62.93
2022-10-06T15:10:37.399Z,60.20
2022-10-06T15:15:37.399Z,62.73
2022-10-06T15:20:37.309Z,61.24
2022-10-06T15:25:37.253Z,63.07
2022-10-06T15:44:04.752Z,61.71
2022-10-06T15:49:05.776Z,62.08
2022-10-06T15:54:06.524Z,62.31
2022-10-06T15:59:04.870Z,63.46
2022-10-06T16:07:09.409Z,65.42
2022-10-06T16:12:09.476Z,64.61
2022-10-06T16:17:09.602Z,65.65
2022-10-06T16:22:09.296Z,65.55
2022-10-06T16:27:09.144Z,66.90
2022-10-06T16:32:10.047Z,68.12
2022-10-06T16:37:09.027Z,69.06
2022-10-06T16:42:09.002Z,71.43
2022-10-06T16:47:10.070Z,72.78
2022-10-06T16:52:08.879Z,74.82
2022-10-06T16:57:08.815Z,74.65
2022-10-06T17:02:08.965Z,75.09
2022-10-06T17:07:12.018Z,76.45
2022-10-06T17:12:08.662Z,77.20
2022-10-06T17:17:08.655Z,77.81
2022-10-06T17:22:08.559Z,77.55
2022-10-06T17:27:08.486Z,77.95
2022-10-06T17:32:08.515Z,77.98
2022-10-06T17:37:08.461Z,79.14
2022-10-06T17:42:08.452Z,80.68
2022-10-06T17:47:08.377Z,81.12
2022-10-06T17:52:08.132Z,81.23
2022-10-06T17:57:11.720Z,81.26
2022-10-06T18:02:09.154Z,82.01
2022-10-06T18:07:08.037Z,82.53
2022-10-06T18:12:07.935Z,82.67
2022-10-06T18:17:08.013Z,83.42
2022-10-06T18:22:07.923Z,84.79
2022-10-06T18:27:08.156Z,84.38
2022-10-06T18:32:59.225Z,84.93
2022-10-06T18:37:09.852Z,84.72
2022-10-06T18:42:07.641Z,85.48
2022-10-06T18:47:07.558Z,85.83
2022-10-06T18:52:07.513Z,86.24
2022-10-06T18:57:10.860Z,87.37
2022-10-06T19:02:07.427Z,88.08
2022-10-06T19:07:08.380Z,87.71
2022-10-06T19:12:07.414Z,88.02
2022-10-06T19:17:07.364Z,88.17
2022-10-06T19:22:07.198Z,89.09
2022-10-06T19:27:07.185Z,89.43
2022-10-06T19:32:07.108Z,89.64
2022-10-06T19:37:07.039Z,89.13
2022-10-06T19:42:07.058Z,89.48
2022-10-06T19:47:06.977Z,90.40
2022-10-06T19:52:06.843Z,90.61
2022-10-06T19:57:06.887Z,90.50
2022-10-06T20:02:06.752Z,90.34
2022-10-06T20:07:06.788Z,90.75
2022-10-06T20:12:07.659Z,90.65
2022-10-06T20:17:06.668Z,90.85
2022-10-06T20:22:09.937Z,90.59
2022-10-06T20:27:06.499Z,90.59
2022-10-06T20:32:06.514Z,90.80
2022-10-06T20:37:06.464Z,90.73
2022-10-06T20:42:09.375Z,90.83
2022-10-06T20:47:07.313Z,91.76
2022-10-06T20:52:06.256Z,91.04
2022-10-06T20:57:06.238Z,91.08
2022-10-06T21:02:06.160Z,90.98
2022-10-06T21:07:06.195Z,91.23
2022-10-06T21:12:05.982Z,91.02
2022-10-06T21:17:05.941Z,90.81
2022-10-06T21:22:05.890Z,91.02
2022-10-06T21:27:05.855Z,91.95
2022-10-06T21:34:45.683Z,91.85
2022-10-06T21:39:45.562Z,92.16
2022-10-06T21:44:45.547Z,92.25
2022-10-06T21:49:45.646Z,92.20
2022-10-06T21:54:45.661Z,92.20
2022-10-06T21:59:45.350Z,92.10
2022-10-06T22:04:45.432Z,92.20
2022-10-06T22:09:45.245Z,92.55
2022-10-06T22:14:46.321Z,93.27
2022-10-06T22:19:45.210Z,93.16
2022-10-06T22:24:45.153Z,92.96
2022-10-06T22:29:45.044Z,92.96
2022-10-06T22:34:44.979Z,92.90
2022-10-06T22:39:44.966Z,92.80
2022-10-06T22:44:44.874Z,93.01
2022-10-06T22:49:44.882Z,93.41
2022-10-06T22:54:44.914Z,94.09
2022-10-06T22:59:44.696Z,93.68
2022-10-06T23:04:44.796Z,93.48
2022-10-06T23:09:44.726Z,93.74
2022-10-06T23:14:44.529Z,93.54
2022-10-06T23:19:44.471Z,93.23
2022-10-06T23:24:44.471Z,93.33
2022-10-06T23:29:44.365Z,93.74
2022-10-06T23:34:44.440Z,93.43
2022-10-06T23:39:44.334Z,93.23
2022-10-06T23:44:44.278Z,93.23
2022-10-06T23:49:46.255Z,93.12
2022-10-06T23:54:44.185Z,93.64
2022-10-06T23:59:44.023Z,93.43
